createdAt,value
2019-03-04T00:01:24.300Z,98792.55
2019-03-04T00:06:28.461Z,98766.36
2019-03-04T00:11:32.602Z,98769.32
2019-03-04T00:16:36.815Z,98762.33
2019-03-04T00:21:41.017Z,98762.33
2019-03-04T00:26:45.178Z,98754.72
2019-03-04T00:31:49.257Z,98753.98
2019-03-04T00:36:53.509Z,98736.42
2019-03-04T00:41:57.736Z,98756.26
2019-03-04T00:47:01.834Z,98743.65
2019-03-04T00:52:06.036Z,98724.77
2019-03-04T00:57:10.174Z,98713.84
2019-03-04T01:02:14.331Z,98695.36
2019-03-04T01:07:18.582Z,98692.24
2019-03-04T01:12:22.776Z,98664.49
2019-03-04T01:17:26.891Z,98663.06
2019-03-04T01:22:31.091Z,98663.06
2019-03-04T01:27:35.292Z,98657.75
2019-03-04T01:32:39.683Z,98662.14
2019-03-04T01:37:43.988Z,98625.55
2019-03-04T01:42:48.245Z,98645.71
2019-03-04T01:47:52.436Z,98628.28
2019-03-04T01:52:56.661Z,98633.42
2019-03-04T01:58:00.935Z,98621.66
2019-03-04T02:03:05.376Z,98625.59
2019-03-04T02:08:09.575Z,98629.45
2019-03-04T02:13:13.824Z,98615.39
2019-03-04T02:18:17.988Z,98611.86
2019-03-04T02:23:22.174Z,98593.45
2019-03-04T02:28:26.389Z,98593.45
2019-03-04T02:33:30.601Z,98593.77
2019-03-04T02:38:34.812Z,98576.78
2019-03-04T02:43:38.977Z,98575.44
2019-03-04T02:48:43.043Z,98557.59
2019-03-04T02:53:47.138Z,98519.95
2019-03-04T02:58:51.171Z,98528.30
2019-03-04T03:03:55.249Z,98528.30
2019-03-04T03:08:59.308Z,98484.42
2019-03-04T03:14:03.460Z,98474.26
2019-03-04T03:19:07.522Z,98481.62
2019-03-04T03:24:11.542Z,98472.06
2019-03-04T03:29:15.750Z,98479.03
2019-03-04T03:34:19.901Z,98479.03
2019-03-04T03:39:24.034Z,98473.41
2019-03-04T03:44:28.079Z,98477.95
2019-03-04T03:49:32.133Z,98468.81
2019-03-04T03:54:36.151Z,98468.81
2019-03-04T03:59:40.259Z,98468.47
2019-03-04T04:04:44.386Z,98433.80
2019-03-04T04:09:48.511Z,98433.80
2019-03-04T04:14:52.539Z,98396.92
2019-03-04T04:19:56.586Z,98385.45
2019-03-04T04:25:00.684Z,98371.65
2019-03-04T04:30:05.835Z,98356.14
2019-03-04T04:35:10.035Z,98353.79
2019-03-04T04:40:14.260Z,98346.72
2019-03-04T04:45:18.388Z,98344.30
2019-03-04T04:50:22.727Z,98321.11
2019-03-04T04:55:26.924Z,98299.13
2019-03-04T05:00:31.430Z,98301.87
2019-03-04T05:05:35.572Z,98299.34
2019-03-04T05:10:39.739Z,98275.70
2019-03-04T05:15:43.945Z,98273.84
2019-03-04T05:20:48.137Z,98287.53
2019-03-04T05:25:52.260Z,98257.60
2019-03-04T05:30:56.466Z,98249.33
2019-03-04T05:36:00.547Z,98242.09
2019-03-04T05:41:04.732Z,98230.66
2019-03-04T05:46:08.895Z,98202.36
2019-03-04T05:51:13.188Z,98202.75
2019-03-04T05:56:17.384Z,98182.58
2019-03-04T06:01:27.027Z,98182.58
2019-03-04T06:06:48.862Z,98171.61
2019-03-04T06:11:53.047Z,98168.02
2019-03-04T06:16:57.320Z,98168.02
2019-03-04T06:22:01.570Z,98178.16
2019-03-04T06:27:05.850Z,98168.38
2019-03-04T06:32:09.967Z,98161.31
2019-03-04T06:37:14.156Z,98161.31
2019-03-04T06:42:18.388Z,98125.63
2019-03-04T06:47:22.647Z,98115.09
2019-03-04T06:52:27.268Z,98081.56
2019-03-04T06:57:44.241Z,98070.31
2019-03-04T07:02:48.413Z,98091.53
2019-03-04T07:07:52.709Z,98068.68
2019-03-04T07:12:56.911Z,98068.68
2019-03-04T07:18:01.091Z,98048.34
2019-03-04T07:23:05.389Z,98053.22
2019-03-04T07:28:09.615Z,98038.09
2019-03-04T07:33:14.029Z,98017.35
2019-03-04T07:38:51.792Z,98016.05
2019-03-04T07:43:55.929Z,98003.33
2019-03-04T07:49:00.157Z,97999.06
2019-03-04T07:54:04.646Z,97995.94
2019-03-04T07:59:08.906Z,97966.33
2019-03-04T08:04:12.914Z,97954.55
2019-03-04T08:09:22.194Z,97949.93
2019-03-04T08:14:26.293Z,97945.92
2019-03-04T08:19:30.437Z,97937.75
2019-03-04T08:24:34.455Z,97939.75
2019-03-04T08:29:38.542Z,97938.82
2019-03-04T08:34:42.632Z,97934.16
2019-03-04T08:39:46.717Z,97935.83
2019-03-04T08:44:50.736Z,97935.83
2019-03-04T08:49:54.767Z,97928.95
2019-03-04T08:54:59.396Z,97928.95
2019-03-04T09:00:03.894Z,97939.87
2019-03-04T09:05:08.711Z,97938.86
2019-03-04T09:10:16.851Z,97906.27
2019-03-04T09:15:21.082Z,97882.92
2019-03-04T09:20:25.597Z,97847.95
2019-03-04T09:25:34.710Z,97851.34
2019-03-04T09:30:39.147Z,97854.03
2019-03-04T09:35:57.121Z,97782.14
2019-03-04T09:41:01.192Z,97782.14
2019-03-04T09:46:05.430Z,97791.86
2019-03-04T09:51:09.806Z,97766.67
2019-03-04T09:56:14.405Z,97766.67
2019-03-04T10:01:28.803Z,97778.62
2019-03-04T10:07:10.601Z,97714.45
2019-03-04T10:12:36.679Z,97714.45
2019-03-04T10:18:18.800Z,97773.09
2019-03-04T10:24:13.175Z,97788.05
2019-03-04T10:30:07.589Z,97763.31
2019-03-04T10:36:01.708Z,97763.31
2019-03-04T10:41:30.222Z,97797.79
2019-03-04T10:46:55.993Z,97833.59
2019-03-04T10:52:00.210Z,97803.75
2019-03-04T10:57:04.414Z,97803.75
2019-03-04T11:02:08.590Z,97801.77
2019-03-04T11:07:54.611Z,97810.53
2019-03-04T11:23:59.473Z,97810.89
2019-03-04T11:29:04.526Z,97807.70
2019-03-04T11:34:08.759Z,97792.23
2019-03-04T11:39:52.374Z,97792.23
2019-03-04T11:44:56.867Z,97910.44
2019-03-04T11:50:01.458Z,97884.94
2019-03-04T11:55:07.894Z,97884.94
2019-03-04T12:00:15.730Z,97879.39
2019-03-04T12:05:20.193Z,97885.30
2019-03-04T12:10:24.568Z,97846.87
2019-03-04T12:15:29.126Z,97836.78
2019-03-04T12:20:33.870Z,97836.78
2019-03-04T12:25:50.168Z,97822.67
2019-03-04T12:30:55.684Z,97822.67
2019-03-04T12:36:00.228Z,97798.98
2019-03-04T12:41:04.834Z,97798.80
2019-03-04T12:46:09.226Z,97797.31
2019-03-04T12:51:22.757Z,97786.70
2019-03-04T12:56:19.915Z,97786.70
2019-03-04T13:01:24.509Z,97809.73
2019-03-04T13:06:29.029Z,97792.43
2019-03-04T13:11:33.543Z,97784.70
2019-03-04T13:16:38.040Z,97786.91
2019-03-04T13:21:42.569Z,97774.31
2019-03-04T13:26:47.096Z,97757.64
2019-03-04T13:31:51.569Z,97771.45
2019-03-04T13:36:56.190Z,97771.45
2019-03-04T13:42:00.637Z,97772.12
2019-03-04T13:47:05.223Z,97803.54
2019-03-04T13:52:09.662Z,97803.54
2019-03-04T13:57:14.171Z,97810.96
2019-03-04T14:02:18.719Z,97806.92
2019-03-04T14:07:23.170Z,97806.92
2019-03-04T14:12:28.935Z,97787.05
2019-03-04T14:17:33.218Z,97790.09
2019-03-04T14:22:40.540Z,97802.18
2019-03-04T14:28:05.744Z,97802.18
2019-03-04T14:38:34.821Z,97798.72
2019-03-04T14:49:15.447Z,97812.84
2019-03-04T14:54:22.009Z,97812.84
2019-03-04T14:59:29.578Z,97811.31
2019-03-04T15:31:00.297Z,97699.95
2019-03-04T15:36:09.146Z,97738.63
2019-03-04T15:41:14.931Z,97738.63
2019-03-04T15:46:24.313Z,97813.98
2019-03-04T15:57:58.642Z,97859.04
2019-03-04T16:03:29.976Z,97874.17
2019-03-04T16:08:49.803Z,97884.62
2019-03-04T16:14:00.506Z,97890.66
2019-03-04T16:19:31.043Z,97888.48
2019-03-04T16:31:12.303Z,97894.22
2019-03-04T16:42:56.222Z,97913.89
2019-03-04T16:48:00.537Z,97906.13
2019-03-04T16:53:04.887Z,97999.67
2019-03-04T16:58:08.991Z,97999.67
2019-03-04T17:03:13.223Z,98064.87
2019-03-04T17:08:17.509Z,98097.63
2019-03-04T17:13:21.741Z,98094.10
2019-03-04T17:18:25.917Z,98112.70
2019-03-04T17:23:30.274Z,98107.20
2019-03-04T17:28:34.639Z,98102.00
2019-03-04T17:33:38.990Z,98090.53
2019-03-04T17:38:43.184Z,98104.18
2019-03-04T17:43:47.471Z,98112.42
2019-03-04T17:48:51.720Z,98128.45
2019-03-04T17:53:55.828Z,98128.45
2019-03-04T17:59:00.115Z,98132.83
2019-03-04T18:04:04.349Z,98147.66
2019-03-04T18:09:08.617Z,98163.31
2019-03-04T18:14:12.907Z,98175.95
2019-03-04T18:19:16.984Z,98198.55
2019-03-04T18:24:21.278Z,98197.34
2019-03-04T18:35:47.981Z,98224.13
2019-03-04T18:41:09.599Z,98225.50
2019-03-04T18:47:05.728Z,98221.61
2019-03-04T18:52:10.109Z,98250.43
2019-03-04T18:57:14.437Z,98258.64
2019-03-04T19:02:19.034Z,98258.64
2019-03-04T19:07:23.402Z,98287.73
2019-03-04T19:12:27.881Z,98288.09
2019-03-04T19:17:33.724Z,98287.56
2019-03-04T19:22:38.194Z,98307.02
2019-03-04T19:27:42.329Z,98288.29
2019-03-04T19:32:46.739Z,98311.06
2019-03-04T19:37:50.910Z,98332.09
2019-03-04T19:42:55.013Z,98334.28
2019-03-04T19:47:59.225Z,98345.50
2019-03-04T19:53:03.370Z,98330.77
2019-03-04T19:58:07.507Z,98333.47
2019-03-04T20:03:11.807Z,98353.08
2019-03-04T20:08:17.473Z,98348.16
2019-03-04T20:13:21.638Z,98361.16
2019-03-04T20:18:25.797Z,98372.78
2019-03-04T20:23:29.958Z,98386.22
2019-03-04T20:28:34.145Z,98394.60
2019-03-04T20:33:40.742Z,98402.47
2019-03-04T20:38:46.984Z,98417.72
2019-03-04T20:43:51.031Z,98415.98
2019-03-04T20:48:55.452Z,98415.98
2019-03-04T20:53:59.517Z,98443.16
2019-03-04T20:59:03.647Z,98444.12
2019-03-04T21:04:07.927Z,98446.97
2019-03-04T21:09:14.329Z,98462.28
2019-03-04T21:14:18.702Z,98467.17
2019-03-04T21:19:22.891Z,98480.98
2019-03-04T21:24:27.069Z,98493.59
2019-03-04T21:30:03.927Z,98495.29
2019-03-04T21:35:55.200Z,98505.88
2019-03-04T21:41:27.780Z,98503.40
2019-03-04T21:47:09.064Z,98526.58
2019-03-04T21:52:31.443Z,98537.34
2019-03-04T21:57:39.529Z,98537.98
2019-03-04T22:02:54.424Z,98532.30
2019-03-04T22:07:58.535Z,98537.85
2019-03-04T22:13:03.030Z,98537.80
2019-03-04T22:18:08.123Z,98544.53
2019-03-04T22:23:12.583Z,98544.53
2019-03-04T22:28:16.770Z,98563.22
2019-03-04T22:33:20.851Z,98567.98
2019-03-04T22:38:25.102Z,98571.45
2019-03-04T22:43:29.241Z,98571.45
2019-03-04T22:48:33.326Z,98572.14
2019-03-04T22:53:37.505Z,98572.14
2019-03-04T22:58:41.610Z,98589.30
2019-03-04T23:03:46.330Z,98596.54
2019-03-04T23:08:50.515Z,98600.23
2019-03-04T23:14:13.843Z,98600.23
2019-03-04T23:19:18.020Z,98611.66
2019-03-04T23:24:22.126Z,98626.32
2019-03-04T23:29:26.226Z,98635.24
2019-03-04T23:34:30.428Z,98634.90
2019-03-04T23:39:34.515Z,98629.86
2019-03-04T23:44:38.748Z,98631.55
2019-03-04T23:49:43.025Z,98631.55
2019-03-04T23:54:47.295Z,98623.78
2019-03-04T23:59:51.398Z,98624.62
